KOKV

Winchester Regional Airport

Winchester, Virginia, USA
METAR KOKV 151855Z AUTO 23012G20KT 10SM BKN070 OVC080 15/02 A2965 RMK AO2
Observed Flight Rules
Feb-15 @ 18:55 UTC (14 minutes ago) Visual Flight Rules
Wind Visibility Clouds
230° at 12 knots
 Gusting to 20 knots
10 miles
  • Broken at 7,000' AGL
  • Overcast at 8,000' AGL
Temperatures Readings
Current 15°C / 59°F
Dewpoint 2°C / 36°F
Humidity 42%
Altimeter 29.65" Hg
Pressure 1004.02 hPa
Elevation 222
METAR KOKV 151855Z AUTO 23012G20KT 10SM BKN070 OVC080 15/02 A2965 RMK AO2
Observed Flight Rules
Feb-15 @ 18:55 UTC
(14 minutes ago)
VFR
Wind Visibility
230° at 12 knots
 Gusting to 20 knots
10 miles
Clouds
  • Broken at 7,000' AGL
  • Overcast at 8,000' AGL
Temperature Dewpoint
15°C / 59°F 2°C / 36°F
Humidity Altimeter Pressure
42% 29.65" Hg 1004.02 hPa